createdAt,value
2019-04-05T00:01:44.882Z,99742.00
2019-04-05T00:04:27.335Z,99735.00
2019-04-05T00:07:03.384Z,99738.00
2019-04-05T00:09:52.945Z,99742.00
2019-04-05T00:12:35.669Z,99726.00
2019-04-05T00:15:15.945Z,99719.00
2019-04-05T00:17:51.693Z,99724.00
2019-04-05T00:20:34.343Z,99726.00
2019-04-05T00:23:23.208Z,99722.00
2019-04-05T00:26:06.038Z,99719.00
2019-04-05T00:28:41.656Z,99720.00
2019-04-05T00:31:24.314Z,99726.00
2019-04-05T00:34:00.686Z,99723.00
2019-04-05T00:36:43.535Z,99727.00
2019-04-05T00:39:26.350Z,99724.00
2019-04-05T00:42:08.601Z,99722.00
2019-04-05T00:44:44.317Z,99726.00
2019-04-05T00:47:20.174Z,99730.00
2019-04-05T00:50:02.698Z,99726.00
2019-04-05T00:52:38.465Z,99729.00
2019-04-05T00:55:21.973Z,99734.00
2019-04-05T00:57:57.649Z,99729.00
2019-04-05T01:00:40.229Z,99733.00
2019-04-05T01:03:22.318Z,99738.00
2019-04-05T01:05:58.183Z,99731.00
2019-04-05T01:08:41.510Z,99744.00
2019-04-05T01:11:24.273Z,99729.00
2019-04-05T01:14:13.225Z,99729.00
2019-04-05T01:16:56.009Z,99725.00
2019-04-05T01:19:36.619Z,99728.00
2019-04-05T01:22:23.050Z,99727.00
2019-04-05T01:25:05.650Z,99733.00
2019-04-05T01:27:42.414Z,99730.00
2019-04-05T01:30:29.802Z,99734.00
2019-04-05T01:33:12.475Z,99739.00
2019-04-05T01:35:48.614Z,99743.00
2019-04-05T01:38:31.033Z,99728.00
2019-04-05T01:41:08.153Z,99726.00
2019-04-05T01:43:44.835Z,99722.00
2019-04-05T01:46:27.811Z,99726.00
2019-04-05T01:49:03.530Z,99728.00
2019-04-05T01:51:46.665Z,99724.00
2019-04-05T01:54:29.275Z,99723.00
2019-04-05T01:57:05.364Z,99725.00
2019-04-05T01:59:41.854Z,99729.00
2019-04-05T02:02:25.068Z,99726.00
2019-04-05T02:05:07.010Z,99728.00
2019-04-05T02:07:43.405Z,99724.00
2019-04-05T02:10:27.085Z,99724.00
2019-04-05T02:13:03.143Z,99728.00
2019-04-05T02:15:45.910Z,99726.00
2019-04-05T02:18:28.517Z,99726.00
2019-04-05T02:21:04.885Z,99725.00
2019-04-05T02:23:47.250Z,99731.00
2019-04-05T02:26:36.516Z,99727.00
2019-04-05T02:29:18.708Z,99725.00
2019-04-05T02:31:55.291Z,99752.00
2019-04-05T02:34:37.997Z,99726.00
2019-04-05T02:37:20.755Z,99731.00
2019-04-05T02:40:03.437Z,99726.00
2019-04-05T02:42:41.694Z,99734.00
2019-04-05T02:45:26.787Z,99726.00
2019-04-05T02:48:20.361Z,99730.00
2019-04-05T02:51:00.905Z,99732.00
2019-04-05T02:53:46.899Z,99730.00
2019-04-05T02:56:31.470Z,99739.00
2019-04-05T02:59:14.833Z,99734.00
2019-04-05T03:01:51.372Z,99737.00
2019-04-05T03:04:34.630Z,99737.00
2019-04-05T03:07:24.482Z,99735.00
2019-04-05T03:10:00.655Z,99740.00
2019-04-05T03:12:43.694Z,99740.00
2019-04-05T03:15:25.795Z,99741.00
2019-04-05T03:18:02.396Z,99740.00
2019-04-05T03:20:45.378Z,99742.00
2019-04-05T03:23:28.424Z,99738.00
2019-04-05T03:26:13.593Z,99737.00
2019-04-05T03:29:00.716Z,99742.00
2019-04-05T03:31:43.765Z,99748.00
2019-04-05T03:34:27.663Z,99743.00
2019-04-05T03:37:03.806Z,99755.00
2019-04-05T03:39:40.903Z,99748.00
2019-04-05T03:42:23.532Z,99752.00
2019-04-05T03:45:07.176Z,99756.00
2019-04-05T03:47:50.065Z,99762.00
2019-04-05T03:50:26.513Z,99759.00
2019-04-05T03:53:09.070Z,99769.00
2019-04-05T03:55:58.924Z,99773.00
2019-04-05T03:58:41.999Z,99766.00
2019-04-05T04:01:18.179Z,99781.00
2019-04-05T04:04:00.791Z,99776.00
2019-04-05T04:06:36.868Z,99777.00
2019-04-05T04:09:19.560Z,99775.00
2019-04-05T04:11:55.482Z,99784.00
2019-04-05T04:14:38.320Z,99780.00
2019-04-05T04:17:15.053Z,99784.00
2019-04-05T04:19:59.304Z,99781.00
2019-04-05T04:22:42.791Z,99787.00
2019-04-05T04:25:18.564Z,99782.00
2019-04-05T04:28:00.967Z,99785.00
2019-04-05T04:30:44.264Z,99783.00
2019-04-05T04:33:27.907Z,99780.00
2019-04-05T04:36:13.026Z,99790.00
2019-04-05T04:38:49.606Z,99799.00
2019-04-05T04:41:32.325Z,99796.00
2019-04-05T04:44:15.651Z,99803.00
2019-04-05T04:46:57.848Z,99797.00
2019-04-05T04:49:34.457Z,99807.00
2019-04-05T04:52:17.529Z,99803.00
2019-04-05T04:54:53.874Z,99806.00
2019-04-05T04:57:38.139Z,99821.00
2019-04-05T05:00:14.463Z,99811.00
2019-04-05T05:02:58.391Z,99808.00
2019-04-05T05:05:34.811Z,99813.00
2019-04-05T05:08:18.557Z,99813.00
2019-04-05T05:10:53.821Z,99820.00
2019-04-05T05:13:36.712Z,99826.00
2019-04-05T05:16:13.643Z,99826.00
2019-04-05T05:18:56.144Z,99825.00
2019-04-05T05:21:39.065Z,99829.00
2019-04-05T05:24:15.751Z,99828.00
2019-04-05T05:26:58.463Z,99830.00
2019-04-05T05:29:41.509Z,99829.00
2019-04-05T05:32:24.045Z,99839.00
2019-04-05T05:35:02.336Z,99829.00
2019-04-05T05:37:45.962Z,99836.00
2019-04-05T05:40:35.150Z,99839.00
2019-04-05T05:43:07.876Z,99839.00
2019-04-05T05:45:50.669Z,99839.00
2019-04-05T05:48:32.806Z,99839.00
2019-04-05T05:51:09.149Z,99833.00
2019-04-05T05:53:45.084Z,99845.00
2019-04-05T05:56:27.960Z,99847.00
2019-04-05T05:59:03.851Z,99839.00
2019-04-05T06:01:47.102Z,99840.00
2019-04-05T06:04:36.684Z,99845.00
2019-04-05T06:07:20.213Z,99850.00
2019-04-05T06:09:56.308Z,99848.00
2019-04-05T06:12:39.429Z,99849.00
2019-04-05T06:15:15.539Z,99867.00
2019-04-05T06:18:04.648Z,99847.00
2019-04-05T06:20:35.752Z,99855.00
2019-04-05T06:23:18.698Z,99860.00
2019-04-05T06:25:55.129Z,99858.00
2019-04-05T06:28:38.340Z,99854.00
2019-04-05T06:31:15.015Z,99870.00
2019-04-05T06:33:57.598Z,99868.00
2019-04-05T06:36:33.485Z,99870.00
2019-04-05T06:39:16.522Z,99871.00
2019-04-05T06:41:58.945Z,99878.00
2019-04-05T06:44:48.307Z,99867.00
2019-04-05T06:47:24.293Z,99877.00
2019-04-05T06:50:07.388Z,99878.00
2019-04-05T06:52:50.592Z,99874.00
2019-04-05T06:55:27.160Z,99877.00
2019-04-05T06:58:10.448Z,99889.00
2019-04-05T07:00:57.085Z,99889.00
2019-04-05T07:03:30.835Z,99892.00
2019-04-05T07:06:06.669Z,99879.00
2019-04-05T07:08:54.109Z,99891.00
2019-04-05T07:11:27.918Z,99889.00
2019-04-05T07:14:10.598Z,99895.00
2019-04-05T07:16:54.278Z,99891.00
2019-04-05T07:19:30.035Z,99895.00
2019-04-05T07:22:13.094Z,99894.00
2019-04-05T07:24:49.686Z,99897.00
2019-04-05T07:27:31.954Z,99897.00
2019-04-05T07:30:08.308Z,99914.00
2019-04-05T07:32:51.147Z,99907.00
2019-04-05T07:35:34.267Z,99909.00
2019-04-05T07:38:23.285Z,99905.00
2019-04-05T07:40:58.980Z,99909.00
2019-04-05T07:43:41.659Z,99918.00
2019-04-05T07:46:17.415Z,99914.00
2019-04-05T07:49:00.173Z,99921.00
2019-04-05T07:51:42.400Z,99913.00
2019-04-05T07:54:18.424Z,99918.00
2019-04-05T07:57:00.983Z,99918.00
2019-04-05T07:59:36.815Z,99914.00
2019-04-05T08:02:19.450Z,99914.00
2019-04-05T08:05:02.362Z,99914.00
2019-04-05T08:07:56.520Z,99919.00
2019-04-05T08:10:32.415Z,99917.00
2019-04-05T08:13:17.076Z,99923.00
2019-04-05T08:16:06.328Z,99741.00
2019-04-05T08:18:42.128Z,99926.00
2019-04-05T08:21:18.080Z,99933.00
2019-04-05T08:23:54.180Z,99933.00
2019-04-05T08:26:36.826Z,99930.00
2019-04-05T08:29:12.908Z,99924.00
2019-04-05T08:31:55.671Z,99924.00
2019-04-05T08:34:38.811Z,99922.00
2019-04-05T08:37:27.641Z,99919.00
2019-04-05T08:40:10.783Z,99913.00
2019-04-05T08:42:47.146Z,99920.00
2019-04-05T08:45:29.857Z,99928.00
2019-04-05T08:48:13.182Z,99923.00
2019-04-05T08:50:55.333Z,99925.00
2019-04-05T08:53:31.859Z,99930.00
2019-04-05T08:56:14.123Z,99916.00
2019-04-05T08:58:57.319Z,99923.00
2019-04-05T09:01:39.609Z,99925.00
2019-04-05T09:04:15.770Z,99923.00
2019-04-05T09:06:58.261Z,99933.00
2019-04-05T09:09:34.138Z,99927.00
2019-04-05T09:12:16.857Z,99928.00
2019-04-05T09:14:59.512Z,99921.00
2019-04-05T09:17:57.066Z,99916.00
2019-04-05T09:20:39.937Z,99921.00
2019-04-05T09:23:16.482Z,99924.00
2019-04-05T09:25:52.269Z,99935.00
2019-04-05T09:28:35.154Z,99925.00
2019-04-05T09:31:10.938Z,99929.00
2019-04-05T09:33:54.127Z,99931.00
2019-04-05T09:36:30.682Z,99937.00
2019-04-05T09:39:16.029Z,99939.00
2019-04-05T09:42:05.750Z,99925.00
2019-04-05T09:44:42.054Z,99928.00
2019-04-05T09:47:18.084Z,99928.00
2019-04-05T09:50:00.801Z,99928.00
2019-04-05T09:52:43.198Z,99931.00
2019-04-05T09:55:25.827Z,99927.00
2019-04-05T09:58:14.990Z,99924.00
2019-04-05T10:00:57.845Z,99920.00
2019-04-05T10:03:34.406Z,99921.00
2019-04-05T10:06:17.121Z,99921.00
2019-04-05T10:09:00.314Z,99929.00
2019-04-05T10:11:43.205Z,99928.00
2019-04-05T10:14:19.294Z,99927.00
2019-04-05T10:16:55.524Z,99933.00
2019-04-05T10:19:49.331Z,99938.00
2019-04-05T10:22:16.279Z,99927.00
2019-04-05T10:24:58.883Z,99934.00
2019-04-05T10:27:41.940Z,99928.00
2019-04-05T10:30:18.620Z,99909.00
2019-04-05T10:33:01.124Z,99933.00
2019-04-05T10:35:44.659Z,99933.00
2019-04-05T10:38:20.460Z,99937.00
2019-04-05T10:41:02.801Z,99936.00
2019-04-05T10:43:39.651Z,99934.00
2019-04-05T10:46:22.154Z,99937.00
2019-04-05T10:49:04.875Z,99930.00
2019-04-05T10:51:47.207Z,99934.00
2019-04-05T10:54:23.513Z,99939.00
2019-04-05T10:56:59.606Z,99939.00
2019-04-05T10:59:41.871Z,99941.00
2019-04-05T11:02:24.050Z,99941.00
2019-04-05T11:05:00.444Z,99939.00
2019-04-05T11:07:43.375Z,99931.00
2019-04-05T11:10:20.471Z,99925.00
2019-04-05T11:13:03.720Z,99930.00
2019-04-05T11:15:39.588Z,99934.00
2019-04-05T11:18:21.825Z,99936.00
2019-04-05T11:21:04.872Z,99936.00
2019-04-05T11:23:48.084Z,99947.00
2019-04-05T11:26:24.212Z,99939.00
2019-04-05T11:29:06.391Z,99933.00
2019-04-05T11:31:56.762Z,99932.00
2019-04-05T11:34:33.509Z,99940.00
2019-04-05T11:37:09.722Z,99937.00
2019-04-05T11:39:48.427Z,99927.00
2019-04-05T11:42:33.535Z,99930.00
2019-04-05T11:45:18.861Z,99919.00
2019-04-05T11:47:55.663Z,99929.00
2019-04-05T11:50:39.854Z,99919.00
2019-04-05T11:53:22.750Z,99912.00
2019-04-05T11:56:14.914Z,99913.00
2019-04-05T11:58:51.115Z,99913.00
2019-04-05T12:01:35.673Z,99922.00
2019-04-05T12:04:18.435Z,99923.00
2019-04-05T12:06:54.858Z,99908.00
2019-04-05T12:09:38.387Z,99910.00
2019-04-05T12:12:20.721Z,99901.00
2019-04-05T12:15:10.151Z,99915.00
2019-04-05T12:17:46.004Z,99910.00
2019-04-05T12:20:30.784Z,99908.00
2019-04-05T12:23:07.599Z,99908.00
2019-04-05T12:25:50.904Z,99909.00
2019-04-05T12:28:40.562Z,99906.00
2019-04-05T12:31:23.458Z,99907.00
2019-04-05T12:33:59.861Z,99908.00
2019-04-05T12:36:42.566Z,99903.00
2019-04-05T12:39:28.162Z,99918.00
2019-04-05T12:42:12.236Z,99902.00
2019-04-05T12:44:48.628Z,99902.00
2019-04-05T12:47:33.864Z,99903.00
2019-04-05T12:50:15.948Z,99908.00
2019-04-05T12:52:59.107Z,99901.00
2019-04-05T12:55:34.889Z,99903.00
2019-04-05T12:58:10.605Z,99907.00
2019-04-05T13:00:53.695Z,99905.00
2019-04-05T13:03:37.336Z,99900.00
2019-04-05T13:06:13.951Z,99903.00
2019-04-05T13:08:56.821Z,99909.00
2019-04-05T13:11:33.178Z,99905.00
2019-04-05T13:14:15.607Z,99898.00
2019-04-05T13:16:51.974Z,99902.00
2019-04-05T13:19:28.510Z,99892.00
2019-04-05T13:22:05.776Z,99899.00
2019-04-05T13:24:48.712Z,99901.00
2019-04-05T13:27:41.268Z,99904.00
2019-04-05T13:30:22.961Z,99899.00
2019-04-05T13:32:59.553Z,99907.00
2019-04-05T13:35:42.099Z,99913.00
2019-04-05T13:38:18.906Z,99913.00
2019-04-05T13:41:02.067Z,99901.00
2019-04-05T13:43:38.113Z,99907.00
2019-04-05T13:46:22.750Z,99910.00
2019-04-05T13:49:04.667Z,99906.00
2019-04-05T13:51:42.098Z,99912.00
2019-04-05T13:54:18.888Z,99905.00
2019-04-05T13:57:01.791Z,99908.00
2019-04-05T13:59:38.281Z,99905.00
2019-04-05T14:02:21.688Z,99905.00
2019-04-05T14:05:11.020Z,99909.00
2019-04-05T14:08:09.043Z,99909.00
2019-04-05T14:10:31.999Z,99904.00
2019-04-05T14:13:14.569Z,99914.00
2019-04-05T14:15:57.188Z,99912.00
2019-04-05T14:18:39.454Z,99909.00
2019-04-05T14:21:16.025Z,99912.00
2019-04-05T14:23:58.497Z,99913.00
2019-04-05T14:26:43.512Z,99906.00
2019-04-05T14:29:33.421Z,99904.00
2019-04-05T14:32:21.079Z,99909.00
2019-04-05T14:34:54.763Z,99908.00
2019-04-05T14:37:37.667Z,99902.00
2019-04-05T14:40:18.182Z,99909.00
2019-04-05T14:43:01.083Z,99899.00
2019-04-05T14:45:37.589Z,99905.00
2019-04-05T14:48:20.683Z,99899.00
2019-04-05T14:50:58.472Z,99902.00
2019-04-05T14:53:41.809Z,99906.00
2019-04-05T14:56:26.813Z,99905.00
2019-04-05T14:59:05.679Z,99912.00
2019-04-05T15:01:48.059Z,99900.00
2019-04-05T15:04:30.851Z,99905.00
2019-04-05T15:07:13.350Z,99909.00
2019-04-05T15:09:55.780Z,99909.00
2019-04-05T15:12:31.896Z,99904.00
2019-04-05T15:15:14.797Z,99898.00
2019-04-05T15:17:50.761Z,99904.00
2019-04-05T15:20:34.894Z,99908.00
2019-04-05T15:23:13.812Z,99910.00
2019-04-05T15:25:55.670Z,99917.00
2019-04-05T15:28:31.567Z,99915.00
2019-04-05T15:31:14.234Z,99912.00
2019-04-05T15:33:57.796Z,99913.00
2019-04-05T15:36:34.724Z,99917.00
2019-04-05T15:39:20.634Z,99910.00
2019-04-05T15:41:56.734Z,99909.00
2019-04-05T15:44:39.794Z,99909.00
2019-04-05T15:47:31.821Z,99911.00
2019-04-05T15:50:15.409Z,99914.00
2019-04-05T15:53:04.558Z,99915.00
2019-04-05T15:55:46.864Z,99908.00
2019-04-05T15:58:23.082Z,99915.00
2019-04-05T16:01:05.336Z,99917.00
2019-04-05T16:03:42.009Z,99915.00
2019-04-05T16:06:24.934Z,99919.00
2019-04-05T16:09:01.002Z,99918.00
2019-04-05T16:11:42.734Z,99922.00
2019-04-05T16:14:25.779Z,99915.00
2019-04-05T16:17:14.792Z,99920.00
2019-04-05T16:19:57.842Z,99890.00
2019-04-05T16:22:35.924Z,99925.00
2019-04-05T16:25:18.787Z,99930.00
2019-04-05T16:27:54.992Z,99930.00
2019-04-05T16:30:39.634Z,99927.00
2019-04-05T16:33:15.048Z,99928.00
2019-04-05T16:35:57.739Z,99934.00
2019-04-05T16:38:33.575Z,99933.00
2019-04-05T16:41:17.329Z,99940.00
2019-04-05T16:43:59.911Z,99939.00
2019-04-05T16:46:42.251Z,99936.00
2019-04-05T16:49:18.821Z,99940.00
2019-04-05T16:52:00.967Z,99936.00
2019-04-05T16:54:36.951Z,99936.00
2019-04-05T16:57:13.207Z,99948.00
2019-04-05T16:59:56.444Z,99941.00
2019-04-05T17:02:32.265Z,99934.00
2019-04-05T17:05:08.181Z,99939.00
2019-04-05T17:07:44.051Z,99942.00
2019-04-05T17:10:25.896Z,99940.00
2019-04-05T17:13:03.034Z,99944.00
2019-04-05T17:15:46.263Z,99941.00
2019-04-05T17:18:22.982Z,99940.00
2019-04-05T17:21:05.716Z,99955.00
2019-04-05T17:23:41.755Z,99952.00
2019-04-05T17:26:24.938Z,99954.00
2019-04-05T17:29:01.329Z,99961.00
2019-04-05T17:31:44.007Z,99962.00
2019-04-05T17:34:19.589Z,99968.00
2019-04-05T17:37:02.143Z,99968.00
2019-04-05T17:39:37.968Z,99976.00
2019-04-05T17:42:21.031Z,99971.00
2019-04-05T17:44:56.600Z,99981.00
2019-04-05T17:47:39.531Z,99985.00
2019-04-05T17:50:16.421Z,99986.00
2019-04-05T17:53:11.259Z,99994.00
2019-04-05T17:55:43.103Z,99990.00
2019-04-05T17:58:26.128Z,99996.00
2019-04-05T18:01:08.662Z,100003.00
2019-04-05T18:03:44.714Z,100005.00
2019-04-05T18:06:27.458Z,100004.00
2019-04-05T18:09:11.048Z,100008.00
2019-04-05T18:11:54.202Z,100010.00
2019-04-05T18:14:37.229Z,100012.00
2019-04-05T18:17:13.902Z,100019.00
2019-04-05T18:19:49.931Z,100042.00
2019-04-05T18:22:32.648Z,100019.00
2019-04-05T18:25:08.806Z,100027.00
2019-04-05T18:27:51.250Z,100026.00
2019-04-05T18:30:27.854Z,100029.00
2019-04-05T18:33:11.138Z,100024.00
2019-04-05T18:35:53.304Z,100032.00
2019-04-05T18:38:30.029Z,100040.00
2019-04-05T18:41:12.736Z,100038.00
2019-04-05T18:43:48.461Z,100038.00
2019-04-05T18:46:30.384Z,100041.00
2019-04-05T18:49:06.636Z,100035.00
2019-04-05T18:51:49.123Z,100032.00
2019-04-05T18:54:25.660Z,100050.00
2019-04-05T18:57:08.754Z,100053.00
2019-04-05T18:59:44.759Z,100049.00
2019-04-05T19:02:27.720Z,100048.00
2019-04-05T19:05:04.188Z,100050.00
2019-04-05T19:07:46.859Z,100054.00
2019-04-05T19:10:36.978Z,100056.00
2019-04-05T19:13:08.165Z,100065.00
2019-04-05T19:15:51.429Z,100062.00
2019-04-05T19:18:27.894Z,100063.00
2019-04-05T19:21:10.718Z,100065.00
2019-04-05T19:24:00.024Z,100066.00
2019-04-05T19:26:42.274Z,100063.00
2019-04-05T19:29:18.471Z,100061.00
2019-04-05T19:50:47.047Z,100077.00
2019-04-05T19:53:29.072Z,100074.00
2019-04-05T19:56:12.346Z,100076.00
2019-04-05T19:58:48.179Z,100075.00
2019-04-05T20:01:31.403Z,100076.00
2019-04-05T20:04:07.220Z,100073.00
2019-04-05T20:06:58.050Z,100084.00
2019-04-05T20:09:35.004Z,100082.00
2019-04-05T20:12:11.709Z,100085.00
2019-04-05T20:14:47.486Z,100098.00
2019-04-05T20:17:30.019Z,100094.00
2019-04-05T20:20:14.971Z,100094.00
2019-04-05T20:22:58.143Z,100105.00
2019-04-05T20:25:34.791Z,100101.00
2019-04-05T20:28:16.989Z,100101.00
2019-04-05T20:30:52.735Z,100105.00
2019-04-05T20:33:35.437Z,100108.00
2019-04-05T20:36:24.628Z,100106.00
2019-04-05T20:39:06.683Z,100109.00
2019-04-05T20:41:43.342Z,100107.00
2019-04-05T20:44:26.359Z,100106.00
2019-04-05T20:47:02.216Z,100108.00
2019-04-05T20:49:44.899Z,100113.00
2019-04-05T20:52:27.796Z,100116.00
2019-04-05T20:55:15.166Z,100109.00
2019-04-05T20:57:51.640Z,100110.00
2019-04-05T21:00:27.346Z,100107.00
2019-04-05T21:03:09.782Z,100111.00
2019-04-05T21:05:52.366Z,100122.00
2019-04-05T21:08:28.152Z,100107.00
2019-04-05T21:11:10.528Z,100113.00
2019-04-05T21:13:46.536Z,100116.00
2019-04-05T21:16:29.779Z,100113.00
2019-04-05T21:19:06.338Z,100073.00
2019-04-05T21:21:49.418Z,100117.00
2019-04-05T21:24:35.531Z,100121.00
2019-04-05T21:27:09.331Z,100120.00
2019-04-05T21:29:45.636Z,100126.00
2019-04-05T21:32:27.749Z,100125.00
2019-04-05T21:35:04.460Z,100122.00
2019-04-05T21:37:47.287Z,100128.00
2019-04-05T21:40:23.917Z,100126.00
2019-04-05T21:43:06.474Z,100117.00
2019-04-05T21:45:49.313Z,100128.00
2019-04-05T21:48:38.557Z,100126.00
2019-04-05T21:51:20.969Z,100123.00
2019-04-05T21:53:56.638Z,100122.00
2019-04-05T21:56:39.409Z,100130.00
2019-04-05T21:59:15.576Z,100124.00
2019-04-05T22:01:58.598Z,100123.00
2019-04-05T22:04:34.320Z,100122.00
2019-04-05T22:07:16.489Z,100125.00
2019-04-05T22:09:52.450Z,100121.00
2019-04-05T22:12:35.325Z,100129.00
2019-04-05T22:15:12.035Z,100127.00
2019-04-05T22:17:53.897Z,100131.00
2019-04-05T22:20:29.771Z,100042.00
2019-04-05T22:23:12.652Z,100136.00
2019-04-05T22:25:48.763Z,100133.00
2019-04-05T22:28:31.886Z,100136.00
2019-04-05T22:31:14.067Z,100136.00
2019-04-05T22:34:02.744Z,100131.00
2019-04-05T22:36:45.375Z,100140.00
2019-04-05T22:39:21.800Z,100147.00
2019-04-05T22:42:04.801Z,100146.00
2019-04-05T22:44:41.713Z,100143.00
2019-04-05T22:47:24.413Z,100145.00
2019-04-05T22:50:06.975Z,100148.00
2019-04-05T22:52:48.993Z,100141.00
2019-04-05T22:55:25.433Z,100141.00
2019-04-05T22:58:08.051Z,100141.00
2019-04-05T23:00:50.789Z,100139.00
2019-04-05T23:03:27.254Z,100145.00
2019-04-05T23:06:09.851Z,100142.00
2019-04-05T23:08:51.498Z,100145.00
2019-04-05T23:11:27.822Z,100146.00
2019-04-05T23:14:11.136Z,100145.00
2019-04-05T23:16:47.546Z,100147.00
2019-04-05T23:19:30.096Z,100149.00
2019-04-05T23:22:05.708Z,100150.00
2019-04-05T23:24:48.969Z,100144.00
2019-04-05T23:27:24.924Z,100149.00
2019-04-05T23:30:07.847Z,100151.00
2019-04-05T23:32:50.989Z,100146.00
2019-04-05T23:35:26.644Z,100144.00
2019-04-05T23:38:09.190Z,100146.00
2019-04-05T23:40:44.975Z,100142.00
2019-04-05T23:43:28.248Z,100142.00
2019-04-05T23:46:11.058Z,100150.00
2019-04-05T23:48:53.664Z,100141.00
2019-04-05T23:51:29.356Z,100150.00
2019-04-05T23:54:11.858Z,100139.00
2019-04-05T23:56:54.366Z,100140.00
2019-04-05T23:59:37.665Z,100144.00
